createdAt,value
2018-03-28T00:00:43.922Z,17.20
2018-03-28T00:03:11.390Z,16.67
2018-03-28T00:05:38.965Z,16.43
2018-03-28T00:08:06.950Z,17.67
2018-03-28T00:10:34.414Z,17.63
2018-03-28T00:13:01.893Z,16.47
2018-03-28T00:15:30.359Z,17.83
2018-03-28T00:17:59.085Z,19.70
2018-03-28T00:20:26.902Z,18.90
2018-03-28T00:22:54.570Z,20.37
2018-03-28T00:25:22.947Z,19.30
2018-03-28T00:27:50.798Z,19.67
2018-03-28T00:30:18.371Z,18.10
2018-03-28T00:32:46.129Z,18.63
2018-03-28T00:35:13.893Z,17.67
2018-03-28T00:37:41.558Z,18.20
2018-03-28T00:40:09.561Z,17.17
2018-03-28T00:42:37.402Z,17.60
2018-03-28T00:45:05.171Z,18.67
2018-03-28T00:47:33.452Z,19.17
2018-03-28T00:50:01.695Z,19.20
2018-03-28T00:52:29.161Z,20.53
2018-03-28T00:54:56.938Z,19.00
2018-03-28T00:57:24.585Z,17.37
2018-03-28T00:59:52.064Z,18.13
2018-03-28T01:02:20.329Z,18.77
2018-03-28T01:04:47.895Z,16.80
2018-03-28T01:07:16.234Z,16.97
2018-03-28T01:09:43.708Z,19.13
2018-03-28T01:12:11.601Z,18.20
2018-03-28T01:14:40.037Z,19.03
2018-03-28T01:17:07.540Z,16.70
2018-03-28T01:19:35.297Z,18.50
2018-03-28T01:22:03.006Z,16.93
2018-03-28T01:24:30.722Z,18.13
2018-03-28T01:26:58.295Z,16.13
2018-03-28T01:29:26.533Z,15.80
2018-03-28T01:31:54.158Z,16.30
2018-03-28T01:34:21.806Z,16.70
2018-03-28T01:36:50.269Z,15.67
2018-03-28T01:39:17.939Z,16.43
2018-03-28T01:41:46.305Z,15.47
2018-03-28T01:44:13.983Z,15.80
2018-03-28T01:46:42.302Z,15.93
2018-03-28T01:49:10.326Z,16.17
2018-03-28T01:51:39.009Z,16.27
2018-03-28T01:54:06.789Z,18.60
2018-03-28T01:56:35.059Z,18.40
2018-03-28T01:59:03.435Z,16.40
2018-03-28T02:01:32.045Z,18.33
2018-03-28T02:04:00.257Z,19.63
2018-03-28T02:06:28.120Z,19.17
2018-03-28T02:08:55.598Z,20.17
2018-03-28T02:11:23.069Z,19.93
2018-03-28T02:13:51.245Z,20.50
2018-03-28T02:16:20.355Z,20.87
2018-03-28T02:18:48.597Z,21.20
2018-03-28T02:21:16.281Z,19.87
2018-03-28T02:23:43.888Z,20.67
2018-03-28T02:26:11.426Z,21.97
2018-03-28T02:28:39.719Z,23.30
2018-03-28T02:31:07.469Z,22.33
2018-03-28T02:33:35.722Z,23.17
2018-03-28T02:36:03.293Z,22.17
2018-03-28T02:38:31.563Z,21.07
2018-03-28T02:40:59.818Z,20.87
2018-03-28T02:43:27.360Z,20.17
2018-03-28T02:45:54.841Z,20.53
2018-03-28T02:48:22.413Z,19.53
2018-03-28T02:50:50.692Z,18.30
2018-03-28T02:53:18.961Z,17.47
2018-03-28T02:55:46.525Z,15.67
2018-03-28T02:58:14.120Z,16.60
2018-03-28T03:00:41.646Z,16.40
2018-03-28T03:03:09.510Z,18.27
2018-03-28T03:05:37.274Z,16.53
2018-03-28T03:08:05.850Z,17.27
2018-03-28T03:10:33.421Z,16.53
2018-03-28T03:13:00.990Z,17.17
2018-03-28T03:15:30.225Z,15.93
2018-03-28T03:17:57.743Z,15.63
2018-03-28T03:20:26.317Z,14.90
2018-03-28T03:22:55.522Z,15.40
2018-03-28T03:25:23.851Z,14.73
2018-03-28T03:27:51.562Z,14.07
2018-03-28T03:30:19.074Z,15.23
2018-03-28T03:32:46.578Z,15.63
2018-03-28T03:35:14.141Z,15.70
2018-03-28T03:37:41.710Z,19.23
2018-03-28T03:40:10.170Z,18.67
2018-03-28T03:42:37.642Z,21.00
2018-03-28T03:45:06.029Z,19.80
2018-03-28T03:47:35.415Z,19.17
2018-03-28T03:50:03.029Z,18.53
2018-03-28T03:52:30.847Z,18.10
2018-03-28T03:54:58.426Z,17.93
2018-03-28T03:57:26.689Z,18.57
2018-03-28T03:59:54.957Z,17.10
2018-03-28T04:02:22.722Z,17.23
2018-03-28T04:04:50.320Z,14.97
2018-03-28T04:07:17.840Z,14.80
2018-03-28T04:09:45.333Z,15.00
2018-03-28T04:12:12.871Z,15.60
2018-03-28T04:14:41.963Z,13.73
2018-03-28T04:17:09.429Z,13.80
2018-03-28T04:19:37.685Z,13.30
2018-03-28T04:22:05.249Z,12.23
2018-03-28T04:24:33.338Z,12.47
2018-03-28T04:27:02.000Z,11.90
2018-03-28T04:29:30.493Z,12.27
2018-03-28T04:31:58.770Z,11.67
2018-03-28T04:34:27.062Z,12.07
2018-03-28T04:36:55.347Z,12.77
2018-03-28T04:39:22.925Z,12.03
2018-03-28T04:41:50.549Z,10.20
2018-03-28T04:44:18.923Z,8.87
2018-03-28T04:46:47.502Z,8.13
2018-03-28T04:49:15.471Z,7.63
2018-03-28T04:51:42.950Z,6.87
2018-03-28T04:54:11.215Z,7.83
2018-03-28T04:56:39.450Z,8.93
2018-03-28T04:59:07.045Z,9.07
2018-03-28T05:01:35.429Z,10.37
2018-03-28T05:04:04.215Z,15.07
2018-03-28T05:06:32.906Z,17.00
2018-03-28T05:09:01.141Z,18.83
2018-03-28T05:11:28.672Z,21.90
2018-03-28T05:13:56.238Z,22.97
2018-03-28T05:16:23.873Z,24.00
2018-03-28T05:18:52.329Z,23.33
2018-03-28T05:21:19.815Z,21.03
2018-03-28T05:23:47.286Z,21.53
2018-03-28T05:26:15.258Z,20.23
2018-03-28T05:28:42.890Z,19.20
2018-03-28T05:31:11.162Z,18.17
2018-03-28T05:33:39.433Z,17.77
2018-03-28T05:36:06.990Z,15.83
2018-03-28T05:38:35.270Z,15.23
2018-03-28T05:41:03.506Z,13.87
2018-03-28T05:43:31.011Z,14.33
2018-03-28T05:45:59.274Z,12.27
2018-03-28T05:48:27.147Z,12.73
2018-03-28T05:50:55.522Z,11.37
2018-03-28T05:53:23.086Z,10.53
2018-03-28T05:55:50.666Z,8.40
2018-03-28T05:58:18.895Z,6.03
2018-03-28T06:00:46.471Z,8.10
2018-03-28T06:03:14.033Z,6.53
2018-03-28T06:05:41.607Z,6.63
2018-03-28T06:08:09.838Z,6.10
2018-03-28T06:10:37.534Z,5.67
2018-03-28T06:13:05.105Z,4.87
2018-03-28T06:15:33.473Z,5.00
2018-03-28T06:18:01.711Z,5.07
2018-03-28T06:20:29.178Z,4.57
2018-03-28T06:22:56.861Z,4.90
2018-03-28T06:25:24.425Z,4.33
2018-03-28T06:27:52.400Z,4.83
2018-03-28T06:30:20.634Z,4.80
2018-03-28T06:32:48.222Z,3.90
2018-03-28T06:35:15.901Z,4.13
2018-03-28T06:37:44.175Z,4.07
2018-03-28T06:40:12.417Z,4.13
2018-03-28T06:42:40.937Z,3.90
2018-03-28T06:45:09.276Z,4.13
2018-03-28T06:47:36.747Z,4.10
2018-03-28T06:50:04.206Z,4.00
2018-03-28T06:52:31.723Z,3.97
2018-03-28T06:54:59.238Z,4.50
2018-03-28T06:57:27.733Z,4.30
2018-03-28T06:59:55.967Z,4.87
2018-03-28T07:02:23.526Z,4.63
2018-03-28T07:04:50.985Z,5.27
2018-03-28T07:07:18.462Z,4.60
2018-03-28T07:09:45.921Z,4.70
2018-03-28T07:12:14.198Z,4.90
2018-03-28T07:14:42.058Z,5.33
2018-03-28T07:17:09.769Z,5.47
2018-03-28T07:19:37.382Z,5.00
2018-03-28T07:22:04.868Z,5.10
2018-03-28T07:24:32.394Z,5.90
2018-03-28T07:26:59.855Z,5.07
2018-03-28T07:29:27.331Z,5.27
2018-03-28T07:31:55.693Z,5.93
2018-03-28T07:34:23.921Z,5.63
2018-03-28T07:36:51.421Z,5.70
2018-03-28T07:39:18.893Z,6.17
2018-03-28T07:41:47.131Z,6.53
2018-03-28T07:44:14.645Z,7.17
2018-03-28T07:46:42.169Z,6.40
2018-03-28T07:49:09.729Z,6.47
2018-03-28T07:51:37.345Z,7.17
2018-03-28T07:54:05.878Z,7.70
2018-03-28T07:56:33.439Z,7.50
2018-03-28T07:59:01.674Z,7.63
2018-03-28T08:01:29.150Z,7.13
2018-03-28T08:03:56.647Z,7.40
2018-03-28T08:06:25.206Z,7.10
2018-03-28T08:08:52.971Z,6.23
2018-03-28T08:11:20.634Z,6.47
2018-03-28T08:13:48.126Z,5.77
2018-03-28T08:16:15.654Z,6.33
2018-03-28T08:18:44.182Z,5.93
2018-03-28T08:21:11.646Z,6.03
2018-03-28T08:23:39.110Z,5.83
2018-03-28T08:26:06.598Z,5.87
2018-03-28T08:28:34.366Z,5.93
2018-03-28T08:31:02.139Z,5.53
2018-03-28T08:33:30.601Z,6.07
2018-03-28T08:35:58.274Z,5.90
2018-03-28T08:38:26.590Z,5.70
2018-03-28T08:40:54.062Z,5.70
2018-03-28T08:43:21.531Z,5.57
2018-03-28T08:45:49.374Z,5.73
2018-03-28T08:48:16.949Z,5.60
2018-03-28T08:50:44.446Z,6.20
2018-03-28T08:53:12.214Z,5.47
2018-03-28T08:55:40.581Z,6.00
2018-03-28T08:58:08.965Z,5.43
2018-03-28T09:00:37.237Z,5.27
2018-03-28T09:03:04.741Z,5.90
2018-03-28T09:05:32.223Z,5.10
2018-03-28T09:07:59.709Z,5.63
2018-03-28T09:10:27.373Z,5.97
2018-03-28T09:12:55.561Z,5.57
2018-03-28T09:15:23.794Z,5.83
2018-03-28T09:17:51.293Z,5.90
2018-03-28T09:20:18.883Z,5.87
2018-03-28T09:22:46.356Z,5.60
2018-03-28T09:25:13.865Z,6.13
2018-03-28T09:27:42.102Z,5.87
2018-03-28T09:30:09.686Z,6.63
2018-03-28T09:32:37.154Z,6.13
2018-03-28T09:35:04.618Z,6.50
2018-03-28T09:37:32.979Z,6.10
2018-03-28T09:40:00.446Z,6.10
2018-03-28T09:42:28.007Z,6.93
2018-03-28T09:44:55.487Z,6.93
2018-03-28T09:47:23.221Z,6.13
2018-03-28T09:49:50.882Z,6.00
2018-03-28T09:52:18.642Z,6.13
2018-03-28T09:54:46.251Z,5.80
2018-03-28T09:57:13.876Z,5.10
2018-03-28T09:59:42.129Z,5.30
2018-03-28T10:02:10.509Z,4.63
2018-03-28T10:04:43.589Z,4.57
2018-03-28T10:07:11.145Z,4.00
2018-03-28T10:09:38.634Z,4.33
2018-03-28T10:12:06.195Z,4.00
2018-03-28T10:14:34.574Z,3.70
2018-03-28T10:17:03.046Z,3.60
2018-03-28T10:19:30.642Z,3.13
2018-03-28T10:21:59.134Z,2.97
2018-03-28T10:24:26.598Z,3.10
2018-03-28T10:26:54.067Z,2.93
2018-03-28T10:29:21.581Z,3.10
2018-03-28T10:31:49.824Z,2.67
2018-03-28T10:34:17.294Z,2.77
2018-03-28T10:36:44.854Z,2.30
2018-03-28T10:39:12.474Z,2.87
2018-03-28T10:41:39.970Z,2.50
2018-03-28T10:44:07.432Z,3.00
2018-03-28T10:46:34.898Z,2.67
2018-03-28T10:49:03.142Z,2.80
2018-03-28T10:51:30.921Z,2.50
2018-03-28T10:53:58.485Z,2.90
2018-03-28T10:56:26.069Z,2.23
2018-03-28T10:58:54.422Z,2.27
2018-03-28T11:01:21.966Z,1.90
2018-03-28T11:03:49.434Z,2.27
2018-03-28T11:06:17.212Z,2.30
2018-03-28T11:08:45.445Z,1.87
2018-03-28T11:11:13.042Z,1.70
2018-03-28T11:13:40.701Z,2.00
2018-03-28T11:16:08.482Z,2.27
2018-03-28T11:18:36.887Z,1.90
2018-03-28T11:21:04.966Z,2.00
2018-03-28T11:23:32.682Z,1.70
2018-03-28T11:26:00.281Z,1.50
2018-03-28T11:28:27.998Z,2.20
2018-03-28T11:30:55.462Z,1.80
2018-03-28T11:33:23.633Z,1.80
2018-03-28T11:35:51.393Z,1.90
2018-03-28T11:38:19.063Z,1.70
2018-03-28T11:40:46.822Z,1.93
2018-03-28T11:43:14.391Z,2.27
2018-03-28T11:45:42.871Z,2.33
2018-03-28T11:48:11.147Z,2.10
2018-03-28T11:50:39.374Z,2.20
2018-03-28T11:53:07.192Z,2.10
2018-03-28T11:55:35.498Z,2.27
2018-03-28T11:58:03.071Z,2.07
2018-03-28T12:00:30.574Z,3.97
2018-03-28T12:02:58.895Z,2.83
2018-03-28T12:05:26.370Z,3.43
2018-03-28T12:07:53.883Z,3.03
2018-03-28T12:10:22.130Z,3.60
2018-03-28T12:12:49.598Z,3.40
2018-03-28T12:15:17.261Z,4.43
2018-03-28T12:17:45.026Z,4.00
2018-03-28T12:20:12.793Z,4.17
2018-03-28T12:22:40.265Z,4.57
2018-03-28T12:25:08.883Z,4.50
2018-03-28T12:27:37.074Z,4.70
2018-03-28T12:30:04.551Z,5.13
2018-03-28T12:32:32.019Z,4.40
2018-03-28T12:34:59.591Z,4.43
2018-03-28T12:37:29.031Z,4.80
2018-03-28T12:39:56.550Z,4.63
2018-03-28T12:42:24.917Z,4.57
2018-03-28T12:44:52.486Z,4.43
2018-03-28T12:47:20.727Z,4.23
2018-03-28T12:49:49.066Z,5.13
2018-03-28T12:52:16.621Z,4.70
2018-03-28T12:54:44.030Z,4.77
2018-03-28T12:57:11.522Z,5.03
2018-03-28T12:59:39.070Z,4.83
2018-03-28T13:02:06.593Z,4.57
2018-03-28T13:04:34.273Z,5.30
2018-03-28T13:07:02.058Z,4.47
2018-03-28T13:09:30.285Z,4.30
2018-03-28T13:11:57.755Z,4.83
2018-03-28T13:14:25.273Z,3.93
2018-03-28T13:16:53.237Z,4.20
2018-03-28T13:19:20.713Z,4.53
2018-03-28T13:21:49.291Z,4.10
2018-03-28T13:24:16.814Z,4.40
2018-03-28T13:26:45.041Z,4.80
2018-03-28T13:29:12.856Z,5.47
2018-03-28T13:31:41.101Z,4.63
2018-03-28T13:34:08.561Z,4.50
2018-03-28T13:36:36.037Z,4.17
2018-03-28T13:39:03.703Z,4.40
2018-03-28T13:41:31.468Z,3.70
2018-03-28T13:43:59.530Z,4.57
2018-03-28T13:46:27.200Z,3.70
2018-03-28T13:48:54.674Z,4.30
2018-03-28T13:51:22.975Z,3.43
2018-03-28T13:53:50.437Z,3.33
2018-03-28T13:56:17.990Z,3.40
2018-03-28T13:58:45.553Z,3.60
2018-03-28T14:01:13.009Z,3.03
2018-03-28T14:03:40.725Z,2.20
2018-03-28T14:06:08.290Z,2.67
2018-03-28T14:08:35.815Z,2.90
2018-03-28T14:11:03.279Z,1.80
2018-03-28T14:13:30.865Z,1.80
2018-03-28T14:15:58.421Z,1.30
2018-03-28T14:18:25.983Z,1.90
2018-03-28T14:20:54.322Z,1.80
2018-03-28T14:23:22.550Z,2.00
2018-03-28T14:25:51.118Z,1.90
2018-03-28T14:28:18.674Z,1.70
2018-03-28T14:30:46.164Z,1.70
2018-03-28T14:33:14.382Z,2.10
2018-03-28T14:35:41.866Z,2.50
2018-03-28T14:38:09.436Z,1.67
2018-03-28T14:40:37.702Z,2.30
2018-03-28T14:43:05.565Z,2.87
2018-03-28T14:45:33.225Z,2.00
2018-03-28T14:48:00.890Z,1.50
2018-03-28T14:50:28.354Z,1.70
2018-03-28T14:52:55.905Z,1.43
2018-03-28T14:55:23.879Z,1.50
2018-03-28T14:57:51.542Z,1.87
2018-03-28T15:00:20.024Z,1.50
2018-03-28T15:02:48.600Z,1.30
2018-03-28T15:05:16.277Z,1.10
2018-03-28T15:07:44.509Z,1.40
2018-03-28T15:10:12.079Z,1.40
2018-03-28T15:12:39.553Z,1.60
2018-03-28T15:15:07.118Z,2.13
2018-03-28T15:17:34.684Z,1.73
2018-03-28T15:20:02.938Z,1.70
2018-03-28T15:22:30.838Z,1.90
2018-03-28T15:24:59.197Z,1.80
2018-03-28T15:27:26.762Z,1.50
2018-03-28T15:29:54.428Z,1.23
2018-03-28T15:32:21.885Z,1.50
2018-03-28T15:34:50.153Z,1.70
2018-03-28T15:37:17.714Z,1.37
2018-03-28T15:39:45.419Z,1.60
2018-03-28T15:42:13.037Z,1.10
2018-03-28T15:44:42.639Z,1.60
2018-03-28T15:47:10.931Z,2.40
2018-03-28T15:49:39.162Z,1.40
2018-03-28T15:52:06.830Z,1.27
2018-03-28T15:54:34.329Z,1.50
2018-03-28T15:57:02.610Z,1.30
2018-03-28T15:59:30.869Z,1.50
2018-03-28T16:01:58.639Z,1.27
2018-03-28T16:04:27.225Z,1.57
2018-03-28T16:06:55.489Z,1.20
2018-03-28T16:09:24.598Z,1.50
2018-03-28T16:11:52.866Z,1.30
2018-03-28T16:14:20.332Z,1.40
2018-03-28T16:16:48.623Z,1.77
2018-03-28T16:19:16.094Z,1.87
2018-03-28T16:21:43.743Z,1.30
2018-03-28T16:24:11.382Z,1.37
2018-03-28T16:26:38.949Z,1.33
2018-03-28T16:29:07.418Z,1.63
2018-03-28T16:31:35.277Z,2.00
2018-03-28T16:34:04.598Z,1.80
2018-03-28T16:36:33.114Z,1.23
2018-03-28T16:39:00.605Z,1.20
2018-03-28T16:41:28.209Z,1.80
2018-03-28T16:43:55.751Z,1.50
2018-03-28T16:46:23.342Z,1.43
2018-03-28T16:48:50.882Z,1.30
2018-03-28T16:51:19.114Z,1.50
2018-03-28T16:53:46.906Z,1.60
2018-03-28T16:56:14.468Z,1.90
2018-03-28T16:58:41.929Z,1.80
2018-03-28T17:01:10.159Z,1.63
2018-03-28T17:03:37.667Z,1.37
2018-03-28T17:06:05.944Z,1.40
2018-03-28T17:08:33.999Z,1.27
2018-03-28T17:11:01.558Z,1.60
2018-03-28T17:13:29.126Z,1.30
2018-03-28T17:15:56.585Z,1.33
2018-03-28T17:18:24.857Z,1.30
2018-03-28T17:20:52.431Z,1.43
2018-03-28T17:23:20.905Z,1.30
2018-03-28T17:25:49.278Z,1.30
2018-03-28T17:28:16.846Z,1.60
2018-03-28T17:30:45.106Z,2.00
2018-03-28T17:33:12.974Z,1.90
2018-03-28T17:35:40.587Z,2.23
2018-03-28T17:38:08.055Z,2.27
2018-03-28T17:40:35.539Z,2.00
2018-03-28T17:43:03.014Z,2.53
2018-03-28T17:45:30.797Z,2.57
2018-03-28T17:47:59.025Z,3.10
2018-03-28T17:50:26.730Z,2.90
2018-03-28T17:52:55.339Z,3.27
2018-03-28T17:55:23.069Z,3.17
2018-03-28T17:57:51.437Z,3.50
2018-03-28T18:00:19.108Z,3.80
2018-03-28T18:02:47.422Z,3.30
2018-03-28T18:05:15.145Z,5.10
2018-03-28T18:07:43.691Z,3.40
2018-03-28T18:10:11.186Z,4.87
2018-03-28T18:12:38.949Z,4.23
2018-03-28T18:15:06.620Z,3.03
2018-03-28T18:17:34.938Z,4.60
2018-03-28T18:20:02.654Z,4.97
2018-03-28T18:22:30.234Z,3.53
2018-03-28T18:24:58.489Z,2.70
2018-03-28T18:27:25.966Z,2.57
2018-03-28T18:29:54.942Z,2.00
2018-03-28T18:32:22.444Z,1.93
2018-03-28T18:34:50.857Z,1.10
2018-03-28T18:37:18.361Z,1.70
2018-03-28T18:39:46.589Z,1.60
2018-03-28T18:42:14.753Z,1.90
2018-03-28T18:44:43.166Z,2.70
2018-03-28T18:47:10.860Z,3.03
2018-03-28T18:49:39.314Z,2.13
2018-03-28T18:52:06.845Z,1.70
2018-03-28T18:54:34.449Z,1.40
2018-03-28T18:57:02.297Z,1.40
2018-03-28T18:59:29.787Z,1.20
2018-03-28T19:01:57.745Z,1.80
2018-03-28T19:04:25.793Z,1.77
2018-03-28T19:06:53.600Z,2.53
2018-03-28T19:09:21.238Z,1.60
2018-03-28T19:11:49.502Z,2.10
2018-03-28T19:14:17.261Z,1.93
2018-03-28T19:16:44.825Z,2.20
2018-03-28T19:19:13.116Z,2.63
2018-03-28T19:21:41.386Z,2.70
2018-03-28T19:24:09.871Z,2.60
2018-03-28T19:26:38.279Z,4.10
2018-03-28T19:29:05.743Z,3.53
2018-03-28T19:31:33.257Z,3.33
2018-03-28T19:34:01.039Z,3.70
2018-03-28T19:36:29.292Z,3.87
2018-03-28T19:38:56.756Z,3.97
2018-03-28T19:41:24.535Z,3.97
2018-03-28T19:43:52.793Z,4.07
2018-03-28T19:46:20.581Z,4.70
2018-03-28T19:48:49.342Z,4.07
2018-03-28T19:51:16.895Z,3.47
2018-03-28T19:53:44.509Z,3.70
2018-03-28T19:56:12.328Z,3.33
2018-03-28T19:58:39.990Z,3.40
2018-03-28T20:01:07.759Z,2.87
2018-03-28T20:03:35.334Z,3.07
2018-03-28T20:06:03.873Z,2.63
2018-03-28T20:08:31.355Z,2.30
2018-03-28T20:10:58.833Z,1.40
2018-03-28T20:13:27.406Z,0.80
2018-03-28T20:15:55.656Z,0.80
2018-03-28T20:18:23.357Z,0.60
2018-03-28T20:20:51.664Z,0.77
2018-03-28T20:23:19.380Z,0.83
2018-03-28T20:25:47.018Z,0.97
2018-03-28T20:28:14.598Z,1.30
2018-03-28T20:30:42.570Z,1.47
2018-03-28T20:33:10.331Z,1.20
2018-03-28T20:35:39.783Z,1.37
2018-03-28T20:38:07.381Z,1.20
2018-03-28T20:40:35.004Z,1.03
2018-03-28T20:43:03.030Z,1.03
2018-03-28T20:45:30.893Z,0.93
2018-03-28T20:47:58.723Z,0.97
2018-03-28T20:50:26.678Z,1.30
2018-03-28T20:52:54.294Z,1.43
2018-03-28T20:55:22.774Z,1.00
2018-03-28T20:57:50.338Z,1.30
2018-03-28T21:00:18.574Z,1.30
2018-03-28T21:02:46.244Z,1.03
2018-03-28T21:05:13.843Z,1.10
2018-03-28T21:07:44.767Z,1.10
2018-03-28T21:10:12.340Z,1.07
2018-03-28T21:12:40.612Z,1.20
2018-03-28T21:15:08.369Z,1.70
2018-03-28T21:17:36.142Z,1.40
2018-03-28T21:20:04.503Z,1.70
2018-03-28T21:22:31.995Z,2.33
2018-03-28T21:24:59.935Z,2.00
2018-03-28T21:27:27.629Z,2.37
2018-03-28T21:29:55.288Z,2.30
2018-03-28T21:32:22.817Z,2.73
2018-03-28T21:34:50.394Z,2.90
2018-03-28T21:37:18.685Z,2.60
2018-03-28T21:42:40.610Z,2.73
2018-03-28T21:45:08.205Z,3.27
2018-03-28T21:47:35.930Z,3.33
2018-03-28T21:50:03.389Z,2.90
2018-03-28T21:52:30.952Z,3.33
2018-03-28T21:54:58.410Z,3.23
2018-03-28T21:57:26.889Z,3.27
2018-03-28T21:59:55.261Z,3.10
2018-03-28T22:02:22.724Z,2.87
2018-03-28T22:04:50.323Z,2.73
2018-03-28T22:07:18.255Z,3.20
2018-03-28T22:09:45.726Z,3.03
2018-03-28T22:12:13.986Z,3.10
2018-03-28T22:14:42.126Z,4.03
2018-03-28T22:17:09.865Z,3.40
2018-03-28T22:19:38.121Z,3.70
2018-03-28T22:22:06.357Z,3.87
2018-03-28T22:24:33.929Z,4.20
2018-03-28T22:27:01.638Z,4.30
2018-03-28T22:29:29.874Z,4.60
2018-03-28T22:31:57.638Z,4.50
2018-03-28T22:34:25.433Z,4.57
2018-03-28T22:36:53.751Z,4.30
2018-03-28T22:39:21.338Z,4.03
2018-03-28T22:41:48.906Z,4.53
2018-03-28T22:44:17.479Z,4.60
2018-03-28T22:46:45.190Z,3.93
2018-03-28T22:49:12.646Z,3.70
2018-03-28T22:51:40.106Z,3.77
2018-03-28T22:54:07.717Z,3.63
2018-03-28T22:56:35.262Z,3.57
2018-03-28T22:59:02.941Z,3.70
2018-03-28T23:01:31.217Z,4.10
2018-03-28T23:03:58.886Z,4.00
2018-03-28T23:06:27.303Z,4.00
2018-03-28T23:08:54.934Z,3.97
2018-03-28T23:11:23.751Z,4.50
2018-03-28T23:13:51.314Z,4.50
2018-03-28T23:16:19.151Z,3.80
2018-03-28T23:18:47.419Z,4.40
2018-03-28T23:21:15.889Z,4.30
2018-03-28T23:23:43.553Z,4.03
2018-03-28T23:26:11.126Z,4.40
2018-03-28T23:28:39.997Z,4.03
2018-03-28T23:31:07.585Z,4.13
2018-03-28T23:33:35.876Z,4.30
2018-03-28T23:36:03.426Z,4.87
2018-03-28T23:38:30.901Z,4.40
2018-03-28T23:40:58.725Z,4.30
2018-03-28T23:43:26.386Z,4.73
2018-03-28T23:45:54.041Z,5.30
2018-03-28T23:48:21.810Z,4.67
2018-03-28T23:50:49.469Z,4.37
2018-03-28T23:53:17.132Z,4.40
2018-03-28T23:55:44.704Z,4.80
2018-03-28T23:58:13.162Z,4.87
